Albion, IL

2:37 AM CDT on August 28, 2016 (GMT -0500)
North of Baker's Garage | | Change Station
Active Advisory: Flood Warning

Elev 490 ft 38.26 °N, 88.07 °W | Updated 1 second ago

Clear
Clear
75.3 °F
Feels Like 74 °F
N
1.0
Wind Variable Wind from East
Gusts 1.0 mph

Today
High -- | Low -- °F
--% Chance of Precip.
Yesterday
High -- | Low -- °F
Precip. -- in
Pressure 30.10 in
Visibility 4.0 miles
Clouds Clear
Heat Index 74 °F
Dew Point 74 °F
Humidity 95%
Rainfall 0.00 in
Snow Depth Not available.
6:18 AM 7:27 PM
Waning Crescent, 17% visible
METAR KCUL 280715Z AUTO 00000KT 4SM BR CLR 23/23 A3010 RMK AO2 T02260226
Pressure 30.10 in
Visibility 4.0 miles
Clouds Clear
Heat Index 74 °F
Dew Point 74 °F
Humidity 95%
Rainfall 0.00 in
Snow Depth Not available.
6:18 AM 7:27 PM
Waning Crescent, 17% visible
METAR KCUL 280715Z AUTO 00000KT 4SM BR CLR 23/23 A3010 RMK AO2 T02260226

10-Day Weather Forecast

Almanac

Astronomy

Aug. 28, 2016 Rise Set
Actual Time
Civil Twilight
Nautical Twilight
Astronomical Twilight
Moon
Length of Visible Light
Length of Day
Tomorrow will be .
, % of the Moon is Illuminated

Today's Extremes

State Highs State Lows

Community

WunderPhotos

Upload Photos

1,935,533 photos uploaded!

WunderBlog® & News

Nearby

Air Quality

  Air Quality AQ Index Pollutant
Not available.

Snow Depth

Station Depth Elevation

Earthquake Activity

City Distance Mag. Time & Date
Minimum magnitude displayed is 2.5.

Coastal Water Temperatures

Place Temperature

Stations

Nearby Weather Stations

Station Location Temp. Windchill Dew Point Humidity Wind Precip. Elev Updated Type
                   

Watches & Warnings

Flood Warning
Issued: 9:24 PM CDT Aug. 27, 2016 – National Weather Service

The Flood Warning continues for the Little Wabash River at Carmi.
* Until Sunday evening.
* At 9 PM Saturday the stage was 27.9 feet.
* Flood stage is 27.0 feet.
* Minor flooding is occurring and minor flooding is forecast.
* Forecast... the river will fall to below flood stage this
Sunday afternoon
* impact... at 27.0 feet... the inundation of County roads begins.


Lat... Lon 3826 8816 3801 8828 3791 8812 3793 8808
      3804 8813 3825 8802